createdAt,value
2023-01-26T00:01:24.841Z,96.17
2023-01-26T00:03:52.250Z,95.94
2023-01-26T00:06:21.495Z,95.97
2023-01-26T00:08:52.209Z,96.00
2023-01-26T00:11:26.886Z,96.12
2023-01-26T00:13:56.198Z,96.28
2023-01-26T00:16:23.455Z,96.30
2023-01-26T00:18:50.503Z,95.62
2023-01-26T00:21:20.924Z,95.96
2023-01-26T00:23:49.569Z,96.32
2023-01-26T00:26:23.532Z,96.55
2023-01-26T00:28:50.796Z,96.53
2023-01-26T00:31:26.001Z,96.63
2023-01-26T00:33:54.744Z,96.48
2023-01-26T00:36:21.931Z,96.58
2023-01-26T00:38:48.824Z,96.51
2023-01-26T00:41:33.968Z,95.77
2023-01-26T00:44:02.390Z,95.84
2023-01-26T00:46:29.699Z,96.41
2023-01-26T00:48:56.634Z,96.52
2023-01-26T00:51:23.428Z,95.88
2023-01-26T00:53:50.192Z,96.10
2023-01-26T00:56:16.956Z,95.65
2023-01-26T00:58:45.633Z,95.99
2023-01-26T01:01:12.571Z,95.84
2023-01-26T01:03:39.419Z,95.64
2023-01-26T01:06:06.172Z,96.43
2023-01-26T01:08:33.049Z,96.45
2023-01-26T01:11:05.920Z,96.29
2023-01-26T01:13:32.791Z,96.16
2023-01-26T01:15:59.702Z,96.37
2023-01-26T01:18:26.661Z,96.54
2023-01-26T01:20:53.447Z,95.99
2023-01-26T01:23:20.228Z,96.40
2023-01-26T01:25:47.035Z,96.07
2023-01-26T01:28:13.817Z,95.53
2023-01-26T01:30:40.712Z,96.15
2023-01-26T01:33:07.531Z,95.91
2023-01-26T01:35:35.926Z,96.12
2023-01-26T01:38:03.195Z,94.89
2023-01-26T01:40:30.225Z,95.10
2023-01-26T01:42:57.089Z,94.92
2023-01-26T01:45:26.591Z,94.98
2023-01-26T01:47:56.859Z,94.89
2023-01-26T01:50:25.296Z,94.98
2023-01-26T01:52:54.718Z,95.60
2023-01-26T01:55:21.519Z,96.22
2023-01-26T01:57:54.287Z,96.47
2023-01-26T02:00:23.059Z,96.20
2023-01-26T02:03:19.112Z,95.96
2023-01-26T02:06:26.339Z,96.34
2023-01-26T02:08:55.622Z,95.80
2023-01-26T02:11:48.774Z,96.49
2023-01-26T02:14:16.217Z,96.26
2023-01-26T02:16:43.439Z,96.14
2023-01-26T02:19:51.929Z,96.22
2023-01-26T02:23:03.027Z,95.91
2023-01-26T02:25:54.850Z,95.75
2023-01-26T02:28:26.225Z,96.16
2023-01-26T02:30:54.976Z,96.39
2023-01-26T02:33:28.489Z,95.90
2023-01-26T02:35:55.311Z,95.72
2023-01-26T02:38:23.956Z,96.10
2023-01-26T02:40:54.073Z,96.30
2023-01-26T02:43:24.338Z,96.22
2023-01-26T02:45:51.143Z,95.88
2023-01-26T02:48:37.896Z,95.83
2023-01-26T02:51:05.522Z,96.11
2023-01-26T02:53:32.735Z,95.69
2023-01-26T02:55:59.903Z,95.53
2023-01-26T02:58:26.796Z,96.02
2023-01-26T03:00:53.676Z,96.60
2023-01-26T03:03:24.961Z,96.66
2023-01-26T03:05:52.394Z,97.22
2023-01-26T03:08:19.407Z,97.05
2023-01-26T03:10:47.654Z,96.65
2023-01-26T03:13:14.465Z,96.21
2023-01-26T03:15:52.792Z,96.03
2023-01-26T03:18:41.456Z,95.78
2023-01-26T03:21:43.085Z,95.66
2023-01-26T03:24:31.634Z,95.59
2023-01-26T03:27:17.142Z,95.50
2023-01-26T03:29:44.466Z,95.70
2023-01-26T03:32:11.621Z,95.74
2023-01-26T03:34:38.448Z,96.16
2023-01-26T03:37:05.788Z,96.39
2023-01-26T03:39:51.322Z,96.43
2023-01-26T03:42:37.335Z,96.98
2023-01-26T03:45:24.390Z,97.58
2023-01-26T03:48:10.002Z,96.87
2023-01-26T03:50:55.333Z,96.86
2023-01-26T03:53:43.112Z,96.63
2023-01-26T03:56:24.946Z,96.43
2023-01-26T03:58:57.894Z,97.03
2023-01-26T04:01:28.210Z,96.41
2023-01-26T04:04:15.743Z,96.26
2023-01-26T04:07:04.202Z,96.30
2023-01-26T04:09:32.794Z,96.54
2023-01-26T04:11:59.976Z,96.54
2023-01-26T04:14:50.117Z,96.52
2023-01-26T04:17:37.318Z,96.21
2023-01-26T04:20:25.009Z,96.57
2023-01-26T04:22:51.774Z,96.96
2023-01-26T04:25:21.916Z,96.98
2023-01-26T04:27:48.991Z,96.34
2023-01-26T04:30:17.769Z,96.48
2023-01-26T04:32:46.327Z,96.78
2023-01-26T04:35:13.670Z,96.32
2023-01-26T04:37:40.593Z,96.23
2023-01-26T04:40:09.371Z,95.88
2023-01-26T04:42:36.317Z,95.71
2023-01-26T04:45:03.457Z,96.24
2023-01-26T04:47:30.336Z,95.69
2023-01-26T04:49:57.400Z,95.62
2023-01-26T04:52:24.235Z,96.21
2023-01-26T04:54:51.017Z,96.12
2023-01-26T04:57:20.667Z,95.70
2023-01-26T04:59:47.519Z,96.03
2023-01-26T05:02:14.740Z,96.45
2023-01-26T05:04:41.691Z,96.28
2023-01-26T05:07:08.470Z,96.27
2023-01-26T05:09:35.262Z,95.90
2023-01-26T05:12:21.975Z,95.18
2023-01-26T05:14:48.731Z,94.73
2023-01-26T05:17:15.451Z,95.17
2023-01-26T05:19:42.254Z,95.25
2023-01-26T05:22:10.946Z,95.54
2023-01-26T05:24:39.087Z,95.34
2023-01-26T05:27:21.285Z,95.27
2023-01-26T05:29:49.174Z,95.11
2023-01-26T05:32:16.258Z,94.89
2023-01-26T05:34:43.339Z,95.12
2023-01-26T05:37:10.164Z,95.42
2023-01-26T05:39:36.926Z,96.10
2023-01-26T05:42:04.246Z,95.26
2023-01-26T05:44:31.004Z,95.12
2023-01-26T05:46:57.973Z,95.77
2023-01-26T05:49:24.776Z,95.50
2023-01-26T05:51:51.575Z,95.87
2023-01-26T05:54:18.457Z,95.95
2023-01-26T05:56:45.250Z,95.88
2023-01-26T05:59:12.048Z,95.65
2023-01-26T06:01:39.469Z,95.68
2023-01-26T06:04:06.380Z,95.54
2023-01-26T06:06:33.134Z,95.26
2023-01-26T06:09:00.062Z,95.55
2023-01-26T06:11:26.877Z,95.77
2023-01-26T06:13:53.656Z,95.53
2023-01-26T06:16:20.479Z,95.30
2023-01-26T06:18:50.083Z,95.18
2023-01-26T06:21:17.172Z,95.35
2023-01-26T06:23:44.289Z,95.91
2023-01-26T06:26:11.092Z,94.64
2023-01-26T06:28:37.918Z,94.34
2023-01-26T06:31:08.033Z,94.72
2023-01-26T06:33:37.170Z,94.41
2023-01-26T06:36:15.179Z,94.55
2023-01-26T06:38:50.939Z,94.25
2023-01-26T06:41:17.932Z,94.32
2023-01-26T06:43:48.434Z,94.01
2023-01-26T06:46:17.084Z,93.60
2023-01-26T06:48:44.316Z,93.90
2023-01-26T06:51:16.802Z,94.12
2023-01-26T06:53:52.190Z,94.37
2023-01-26T06:56:19.474Z,94.37
2023-01-26T06:58:46.277Z,94.10
2023-01-26T07:01:25.276Z,94.89
2023-01-26T07:03:54.592Z,95.25
2023-01-26T07:06:21.623Z,95.23
2023-01-26T07:08:48.374Z,94.92
2023-01-26T07:11:16.921Z,94.86
2023-01-26T07:13:43.722Z,94.75
2023-01-26T07:16:16.097Z,94.89
2023-01-26T07:18:42.964Z,94.74
2023-01-26T07:21:23.073Z,95.09
2023-01-26T07:23:54.265Z,94.94
2023-01-26T07:26:21.322Z,94.25
2023-01-26T07:28:48.427Z,94.28
2023-01-26T07:31:15.283Z,94.52
2023-01-26T07:33:42.160Z,94.59
2023-01-26T07:36:11.155Z,95.03
2023-01-26T07:38:38.778Z,94.91
2023-01-26T07:41:09.744Z,95.32
2023-01-26T07:43:38.871Z,95.28
2023-01-26T07:46:06.343Z,95.51
2023-01-26T07:48:34.475Z,95.56
2023-01-26T07:51:03.821Z,95.63
2023-01-26T07:53:34.183Z,95.95
2023-01-26T07:56:16.049Z,96.05
2023-01-26T07:58:43.171Z,96.06
2023-01-26T08:01:14.779Z,95.38
2023-01-26T08:03:42.716Z,95.54
2023-01-26T08:06:12.052Z,95.19
2023-01-26T08:08:41.439Z,95.45
2023-01-26T08:11:09.955Z,94.74
2023-01-26T08:13:36.831Z,94.41
2023-01-26T08:16:10.901Z,94.09
2023-01-26T08:18:39.291Z,94.57
2023-01-26T08:21:06.269Z,94.93
2023-01-26T08:23:33.033Z,95.27
2023-01-26T08:26:05.492Z,95.45
2023-01-26T08:28:32.622Z,95.83
2023-01-26T08:31:11.669Z,95.58
2023-01-26T08:33:44.033Z,95.93
2023-01-26T08:36:13.756Z,95.07
2023-01-26T08:38:41.837Z,94.17
2023-01-26T08:41:12.894Z,93.61
2023-01-26T08:43:40.050Z,93.53
2023-01-26T08:46:07.657Z,94.02
2023-01-26T08:48:40.791Z,95.15
2023-01-26T08:51:08.934Z,93.67
2023-01-26T08:53:37.587Z,92.11
2023-01-26T08:56:06.873Z,91.63
2023-01-26T08:58:34.971Z,92.09
2023-01-26T09:01:12.180Z,92.19
2023-01-26T09:03:39.345Z,89.98
2023-01-26T09:06:08.684Z,91.19
2023-01-26T09:08:35.771Z,91.55
2023-01-26T09:11:05.030Z,90.04
2023-01-26T09:13:31.908Z,89.60
2023-01-26T09:15:58.726Z,89.58
2023-01-26T09:18:25.904Z,89.48
2023-01-26T09:20:52.701Z,90.61
2023-01-26T09:23:21.792Z,90.73
2023-01-26T09:25:53.896Z,89.33
2023-01-26T09:28:20.660Z,88.57
2023-01-26T09:30:47.473Z,88.83
2023-01-26T09:33:14.351Z,88.89
2023-01-26T09:35:41.110Z,87.54
2023-01-26T09:38:07.882Z,87.43
2023-01-26T09:40:51.151Z,88.52
2023-01-26T09:43:48.617Z,88.90
2023-01-26T09:46:29.642Z,88.09
2023-01-26T09:49:22.304Z,88.14
2023-01-26T09:52:33.982Z,87.49
2023-01-26T09:55:05.514Z,87.44
2023-01-26T09:58:02.377Z,89.29
2023-01-26T10:00:40.420Z,89.09
2023-01-26T10:03:31.469Z,88.02
2023-01-26T10:06:21.652Z,89.88
2023-01-26T10:08:49.766Z,89.07
2023-01-26T10:11:28.459Z,88.29
2023-01-26T10:14:37.147Z,88.33
2023-01-26T10:17:06.428Z,88.31
2023-01-26T10:20:27.219Z,87.56
2023-01-26T10:23:10.955Z,88.57
2023-01-26T10:25:41.265Z,88.26
2023-01-26T10:28:29.831Z,88.83
2023-01-26T10:30:57.928Z,88.93
2023-01-26T10:33:38.206Z,88.80
2023-01-26T10:36:07.964Z,88.28
2023-01-26T10:38:34.653Z,88.34
2023-01-26T10:41:23.600Z,89.28
2023-01-26T10:43:59.972Z,89.56
2023-01-26T10:46:39.153Z,90.83
2023-01-26T10:49:08.412Z,89.39
2023-01-26T10:51:39.260Z,90.00
2023-01-26T10:54:20.506Z,90.53
2023-01-26T10:56:59.146Z,90.87
2023-01-26T10:59:39.120Z,90.06
2023-01-26T11:02:11.773Z,90.24
2023-01-26T11:04:39.858Z,90.93
2023-01-26T11:07:40.607Z,91.14
2023-01-26T11:10:35.525Z,90.27
2023-01-26T11:13:14.856Z,90.12
2023-01-26T11:15:44.933Z,89.02
2023-01-26T11:18:23.852Z,88.85
2023-01-26T11:21:36.184Z,89.33
2023-01-26T11:24:30.175Z,88.96
2023-01-26T11:27:37.198Z,89.83
2023-01-26T11:30:34.410Z,89.71
2023-01-26T11:33:28.747Z,90.10
2023-01-26T11:36:14.823Z,90.67
2023-01-26T11:38:58.776Z,89.18
2023-01-26T11:42:02.636Z,89.28
2023-01-26T11:44:41.064Z,89.00
2023-01-26T11:47:26.599Z,90.63
2023-01-26T11:50:26.475Z,90.82
2023-01-26T11:53:36.225Z,90.36
2023-01-26T11:56:13.504Z,89.99
2023-01-26T11:58:48.656Z,89.42
2023-01-26T12:01:42.408Z,89.18
2023-01-26T12:04:19.958Z,89.36
2023-01-26T12:06:54.131Z,90.52
2023-01-26T12:09:36.779Z,91.00
2023-01-26T12:12:10.897Z,90.72
2023-01-26T12:14:51.545Z,89.86
2023-01-26T12:17:49.463Z,90.78
2023-01-26T12:20:42.641Z,89.69
2023-01-26T12:23:09.289Z,90.08
2023-01-26T12:25:49.476Z,90.51
2023-01-26T12:28:27.854Z,90.27
2023-01-26T12:31:29.999Z,90.05
2023-01-26T12:33:57.357Z,90.81
2023-01-26T12:36:43.363Z,90.63
2023-01-26T12:39:13.504Z,90.06
2023-01-26T12:42:11.288Z,90.26
2023-01-26T12:44:45.738Z,90.60
2023-01-26T12:47:27.793Z,91.90
2023-01-26T12:50:09.959Z,92.10
2023-01-26T12:52:52.180Z,93.08
2023-01-26T12:55:31.265Z,92.29
2023-01-26T12:58:03.233Z,92.52
2023-01-26T13:00:35.967Z,92.20
2023-01-26T13:03:05.502Z,92.19
2023-01-26T13:05:35.732Z,92.29
2023-01-26T13:09:00.717Z,92.49
2023-01-26T13:12:00.347Z,91.78
2023-01-26T13:14:38.715Z,91.15
2023-01-26T13:17:17.409Z,92.22
2023-01-26T13:19:44.167Z,91.93
2023-01-26T13:22:19.732Z,91.36
2023-01-26T13:24:49.779Z,91.51
2023-01-26T13:27:35.106Z,91.32
2023-01-26T13:30:02.730Z,90.07
2023-01-26T13:32:32.302Z,89.82
2023-01-26T13:35:04.011Z,89.79
2023-01-26T13:37:46.767Z,89.47
2023-01-26T13:40:36.098Z,89.94
2023-01-26T13:43:27.503Z,88.99
2023-01-26T13:46:29.694Z,88.02
2023-01-26T13:48:57.280Z,88.17
2023-01-26T13:51:30.718Z,87.81
2023-01-26T13:54:13.781Z,88.22
2023-01-26T13:57:01.941Z,88.05
2023-01-26T13:59:28.737Z,88.95
2023-01-26T14:01:57.881Z,89.43
2023-01-26T14:04:29.075Z,88.30
2023-01-26T14:07:07.888Z,89.26
2023-01-26T14:09:59.495Z,89.08
2023-01-26T14:12:35.521Z,89.32
2023-01-26T14:15:07.525Z,89.55
2023-01-26T14:17:46.481Z,89.46
2023-01-26T14:20:31.935Z,88.92
2023-01-26T14:23:07.822Z,88.65
2023-01-26T14:25:34.977Z,88.39
2023-01-26T14:28:02.012Z,87.81
2023-01-26T14:30:34.129Z,87.99
2023-01-26T14:33:13.953Z,88.54
2023-01-26T14:35:43.474Z,87.80
2023-01-26T14:38:18.063Z,87.99
2023-01-26T14:40:56.816Z,88.25
2023-01-26T14:43:24.695Z,88.17
2023-01-26T14:46:08.529Z,88.88
2023-01-26T14:48:50.425Z,88.52
2023-01-26T14:51:22.677Z,88.66
2023-01-26T14:53:53.015Z,89.03
2023-01-26T14:56:23.920Z,89.50
2023-01-26T14:58:53.146Z,90.28
2023-01-26T15:01:23.224Z,90.35
2023-01-26T15:03:59.092Z,89.47
2023-01-26T15:06:28.647Z,89.83
2023-01-26T15:09:26.259Z,89.15
2023-01-26T15:12:15.504Z,88.67
2023-01-26T15:15:01.187Z,89.26
2023-01-26T15:17:42.549Z,89.52
2023-01-26T15:20:32.338Z,89.16
2023-01-26T15:22:59.223Z,89.55
2023-01-26T15:25:28.503Z,89.68
2023-01-26T15:27:59.240Z,89.75
2023-01-26T15:30:29.715Z,89.98
2023-01-26T15:32:56.608Z,89.96
2023-01-26T15:35:35.008Z,89.68
2023-01-26T15:38:09.985Z,89.27
2023-01-26T15:40:36.875Z,89.02
2023-01-26T15:43:19.481Z,89.48
2023-01-26T15:45:55.565Z,89.75
2023-01-26T15:48:27.047Z,89.11
2023-01-26T15:50:53.793Z,88.68
2023-01-26T15:53:22.486Z,89.44
2023-01-26T15:55:56.220Z,90.48
2023-01-26T15:58:23.980Z,91.17
2023-01-26T16:00:52.642Z,91.92
2023-01-26T16:03:21.147Z,92.28
2023-01-26T16:05:48.704Z,92.17
2023-01-26T16:08:17.164Z,92.04
2023-01-26T16:10:45.151Z,92.41
2023-01-26T16:13:15.008Z,92.45
2023-01-26T16:15:51.069Z,92.35
2023-01-26T16:18:18.907Z,92.22
2023-01-26T16:20:48.477Z,92.22
2023-01-26T16:23:28.680Z,92.61
2023-01-26T16:25:56.051Z,92.42
2023-01-26T16:28:22.941Z,92.43
2023-01-26T16:30:51.433Z,92.48
2023-01-26T16:33:24.898Z,92.59
2023-01-26T16:35:52.234Z,93.01
2023-01-26T16:38:19.057Z,93.45
2023-01-26T16:40:48.451Z,93.30
2023-01-26T16:43:24.747Z,92.92
2023-01-26T16:45:52.849Z,93.15
2023-01-26T16:48:20.833Z,92.93
2023-01-26T16:50:52.526Z,93.26
2023-01-26T16:53:30.802Z,93.40
2023-01-26T16:55:57.589Z,93.81
2023-01-26T16:58:26.703Z,94.21
2023-01-26T17:00:56.966Z,93.83
2023-01-26T17:03:24.631Z,93.50
2023-01-26T17:05:51.390Z,93.42
2023-01-26T17:08:18.178Z,93.94
2023-01-26T17:11:00.631Z,94.27
2023-01-26T17:13:28.210Z,94.03
2023-01-26T17:15:56.900Z,94.05
2023-01-26T17:18:24.403Z,94.05
2023-01-26T17:20:51.233Z,94.47
2023-01-26T17:23:18.052Z,94.19
2023-01-26T17:25:44.860Z,93.96
2023-01-26T17:28:11.608Z,93.29
2023-01-26T17:30:38.410Z,93.30
2023-01-26T17:33:05.364Z,93.52
2023-01-26T17:35:32.098Z,93.64
2023-01-26T17:37:58.818Z,93.43
2023-01-26T17:40:25.621Z,93.91
2023-01-26T17:42:52.386Z,93.75
2023-01-26T17:45:19.188Z,93.73
2023-01-26T17:47:45.961Z,93.72
2023-01-26T17:50:12.825Z,93.31
2023-01-26T17:52:39.605Z,93.25
2023-01-26T17:55:12.106Z,93.33
2023-01-26T17:57:40.340Z,93.44
2023-01-26T18:00:12.158Z,93.55
2023-01-26T18:02:39.056Z,93.72
2023-01-26T18:05:06.716Z,93.83
2023-01-26T18:07:33.485Z,94.25
2023-01-26T18:10:00.261Z,94.36
2023-01-26T18:12:27.041Z,93.81
2023-01-26T18:14:55.191Z,92.85
2023-01-26T18:17:24.876Z,92.54
2023-01-26T18:19:51.655Z,92.66
2023-01-26T18:22:18.691Z,93.16
2023-01-26T18:24:45.435Z,93.40
2023-01-26T18:27:12.389Z,92.99
2023-01-26T18:29:39.129Z,93.36
2023-01-26T18:32:06.460Z,93.29
2023-01-26T18:34:33.269Z,93.47
2023-01-26T18:37:00.022Z,93.44
2023-01-26T18:39:28.987Z,94.00
2023-01-26T18:41:56.950Z,94.35
2023-01-26T18:44:25.641Z,94.81
2023-01-26T18:46:53.875Z,94.42
2023-01-26T18:49:20.831Z,94.33
2023-01-26T18:51:51.751Z,94.43
2023-01-26T18:54:20.198Z,94.43
2023-01-26T18:56:47.494Z,94.63
2023-01-26T18:59:14.496Z,94.54
2023-01-26T19:01:41.348Z,94.42
2023-01-26T19:04:08.137Z,94.49
2023-01-26T19:06:36.373Z,94.55
2023-01-26T19:09:07.422Z,94.52
2023-01-26T19:11:37.811Z,94.49
2023-01-26T19:14:07.132Z,94.72
2023-01-26T19:16:34.803Z,94.70
2023-01-26T19:19:01.600Z,94.59
2023-01-26T19:21:29.349Z,94.66
2023-01-26T19:23:58.942Z,94.87
2023-01-26T19:26:30.925Z,94.60
2023-01-26T19:28:59.089Z,94.92
2023-01-26T19:31:27.138Z,95.09
2023-01-26T19:34:02.757Z,94.51
2023-01-26T19:36:32.462Z,94.24
2023-01-26T19:38:59.763Z,94.08
2023-01-26T19:41:26.590Z,93.39
2023-01-26T19:43:53.661Z,93.61
2023-01-26T19:46:21.240Z,94.03
2023-01-26T19:48:48.583Z,93.96
2023-01-26T19:51:19.126Z,94.04
2023-01-26T19:53:49.522Z,93.83
2023-01-26T19:56:20.853Z,94.32
2023-01-26T19:59:02.705Z,94.37
2023-01-26T20:01:31.281Z,93.92
2023-01-26T20:04:01.527Z,93.97
2023-01-26T20:06:33.692Z,94.02
2023-01-26T20:09:04.237Z,93.73
2023-01-26T20:11:31.046Z,94.35
2023-01-26T20:14:01.517Z,94.10
2023-01-26T20:16:29.455Z,93.69
2023-01-26T20:18:58.710Z,93.14
2023-01-26T20:21:28.408Z,93.22
2023-01-26T20:23:56.228Z,93.33
2023-01-26T20:26:26.172Z,93.46
2023-01-26T20:28:54.526Z,93.38
2023-01-26T20:31:25.592Z,92.96
2023-01-26T20:33:53.688Z,92.96
2023-01-26T20:36:25.186Z,92.62
2023-01-26T20:38:52.235Z,92.70
2023-01-26T20:41:27.502Z,92.72
2023-01-26T20:44:00.211Z,92.29
2023-01-26T20:46:34.748Z,92.18
2023-01-26T20:49:01.829Z,92.34
2023-01-26T20:51:35.890Z,92.02
2023-01-26T20:54:06.352Z,91.36
2023-01-26T20:56:34.215Z,90.73
2023-01-26T20:59:01.450Z,90.15
2023-01-26T21:01:28.605Z,89.31
2023-01-26T21:03:55.879Z,89.87
2023-01-26T21:06:24.323Z,89.78
2023-01-26T21:08:55.193Z,89.46
2023-01-26T21:11:26.333Z,88.63
2023-01-26T21:13:55.976Z,90.02
2023-01-26T21:16:23.279Z,90.22
2023-01-26T21:18:51.342Z,89.22
2023-01-26T21:21:18.908Z,89.37
2023-01-26T21:23:46.390Z,88.36
2023-01-26T21:26:17.288Z,88.26
2023-01-26T21:28:44.730Z,89.00
2023-01-26T21:31:14.783Z,89.36
2023-01-26T21:33:47.520Z,89.90
2023-01-26T21:36:16.452Z,90.07
2023-01-26T21:38:48.085Z,89.71
2023-01-26T21:41:49.071Z,89.93
2023-01-26T21:44:24.189Z,90.06
2023-01-26T21:46:57.115Z,90.54
2023-01-26T21:49:24.957Z,90.07
2023-01-26T21:52:11.657Z,90.34
2023-01-26T21:54:38.531Z,90.58
2023-01-26T21:57:28.204Z,91.13
2023-01-26T21:59:55.851Z,91.22
2023-01-26T22:02:23.465Z,91.37
2023-01-26T22:04:50.698Z,91.22
2023-01-26T22:07:17.499Z,91.21
2023-01-26T22:09:44.338Z,90.77
2023-01-26T22:12:11.125Z,89.63
2023-01-26T22:14:37.910Z,89.20
2023-01-26T22:17:04.666Z,89.57
2023-01-26T22:19:31.412Z,90.05
2023-01-26T22:21:58.236Z,90.49
2023-01-26T22:24:25.040Z,90.14
2023-01-26T22:26:51.857Z,89.54
2023-01-26T22:29:19.976Z,89.89
2023-01-26T22:31:46.841Z,89.49
2023-01-26T22:34:13.652Z,90.09
2023-01-26T22:36:41.120Z,90.61
2023-01-26T22:39:08.643Z,91.00
2023-01-26T22:41:37.793Z,91.09
2023-01-26T22:44:04.914Z,90.82
2023-01-26T22:46:31.989Z,91.06
2023-01-26T22:48:59.599Z,90.39
2023-01-26T22:51:29.854Z,90.77
2023-01-26T22:53:58.344Z,91.37
2023-01-26T22:56:26.657Z,91.40
2023-01-26T22:59:00.518Z,91.38
2023-01-26T23:01:31.310Z,91.58
2023-01-26T23:03:59.456Z,92.25
2023-01-26T23:06:26.764Z,92.47
2023-01-26T23:08:54.462Z,91.74
2023-01-26T23:11:25.012Z,91.55
2023-01-26T23:13:53.688Z,90.82
2023-01-26T23:16:22.905Z,90.96
2023-01-26T23:18:50.293Z,91.38
2023-01-26T23:21:17.177Z,90.70
2023-01-26T23:23:44.675Z,91.34
2023-01-26T23:26:11.537Z,90.95
2023-01-26T23:28:42.829Z,91.39
2023-01-26T23:31:12.227Z,91.74
2023-01-26T23:33:39.522Z,91.21
2023-01-26T23:36:08.426Z,91.24
2023-01-26T23:38:35.853Z,90.95
2023-01-26T23:41:02.963Z,90.95
2023-01-26T23:43:29.703Z,91.26
2023-01-26T23:45:56.945Z,91.88
2023-01-26T23:48:25.060Z,91.63
2023-01-26T23:51:00.186Z,91.95
2023-01-26T23:53:28.330Z,91.15
2023-01-26T23:55:56.170Z,91.74
2023-01-26T23:58:23.128Z,92.59
